createdAt,value
2023-04-25T00:00:05.878Z,1.7
2023-04-25T00:05:17.653Z,1.6
2023-04-25T00:10:23.690Z,1.6
2023-04-25T00:15:29.769Z,1.8
2023-04-25T00:20:35.904Z,1.8
2023-04-25T00:25:42.011Z,1.8
2023-04-25T00:30:53.722Z,1.5
2023-04-25T00:36:05.438Z,1.5
2023-04-25T00:41:11.497Z,1.5
2023-04-25T00:46:17.629Z,1.5
2023-04-25T00:51:23.722Z,1.5
2023-04-25T00:56:29.835Z,1.5
2023-04-25T01:01:35.911Z,1.5
2023-04-25T01:06:42.107Z,1.6
2023-04-25T01:11:48.121Z,1.5
2023-04-25T01:16:54.287Z,1.4
2023-04-25T01:22:00.350Z,1.4
2023-04-25T01:27:06.390Z,1.5
2023-04-25T01:32:12.581Z,1.5
2023-04-25T01:37:18.551Z,1.5
2023-04-25T01:42:24.648Z,1.4
2023-04-25T01:47:31.797Z,1.2
2023-04-25T01:52:36.835Z,1.4
2023-04-25T01:57:42.938Z,1.2
2023-04-25T02:02:49.092Z,1.2
2023-04-25T02:07:55.146Z,1.4
2023-04-25T02:13:01.234Z,1.5
2023-04-25T02:18:12.988Z,1.3
2023-04-25T02:23:24.850Z,1.3
2023-04-25T02:28:30.828Z,1.4
2023-04-25T02:33:36.866Z,1.5
2023-04-25T02:38:42.949Z,1.4
2023-04-25T02:43:49.317Z,1.3
2023-04-25T02:48:55.153Z,1.4
2023-04-25T02:54:01.232Z,1.4
2023-04-25T02:59:07.347Z,1.5
2023-04-25T03:04:13.464Z,1.5
2023-04-25T03:09:19.525Z,1.6
2023-04-25T03:14:25.638Z,1.5
2023-04-25T03:19:31.712Z,1.1
2023-04-25T03:24:37.815Z,1
2023-04-25T03:29:43.899Z,1
2023-04-25T03:34:50.008Z,1.1
2023-04-25T03:39:56.097Z,1
2023-04-25T03:45:02.204Z,0.9
2023-04-25T03:50:08.261Z,0.9
2023-04-25T03:55:14.392Z,0.9
2023-04-25T04:00:20.480Z,0.8
2023-04-25T04:05:32.260Z,0.8
2023-04-25T04:10:43.946Z,0.8
2023-04-25T04:15:55.678Z,0.5
2023-04-25T04:21:01.763Z,0.6
2023-04-25T04:26:07.845Z,0.6
2023-04-25T04:31:13.965Z,0.5
2023-04-25T04:36:20.028Z,0.4
2023-04-25T04:41:26.128Z,0.3
2023-04-25T04:46:32.249Z,0.4
2023-04-25T04:51:38.341Z,0.4
2023-04-25T04:56:44.386Z,0.3
2023-04-25T05:01:50.497Z,0.1
2023-04-25T05:06:56.593Z,0.1
2023-04-25T05:12:02.692Z,0.1
2023-04-25T05:17:08.796Z,0.1
2023-04-25T05:22:14.856Z,-0.1
2023-04-25T05:27:20.975Z,0
2023-04-25T05:32:27.102Z,0
2023-04-25T05:37:33.174Z,0
2023-04-25T05:42:39.276Z,0.1
2023-04-25T05:47:45.419Z,0.1
2023-04-25T05:52:51.452Z,0.1
2023-04-25T05:58:03.177Z,0.3
2023-04-25T06:03:09.413Z,0.5
2023-04-25T06:08:15.380Z,0.3
2023-04-25T06:13:21.596Z,0.4
2023-04-25T06:18:27.548Z,0
2023-04-25T06:23:33.642Z,0.1
2023-04-25T06:28:39.727Z,0
2023-04-25T06:33:45.843Z,0
2023-04-25T06:38:52.111Z,0
2023-04-25T06:43:58.045Z,0.8
2023-04-25T06:49:04.141Z,2
2023-04-25T06:54:10.199Z,6.8
2023-04-25T06:59:16.293Z,6
2023-04-25T07:04:22.569Z,4.6
2023-04-25T07:09:28.496Z,3.9
2023-04-25T07:14:34.589Z,4.8
2023-04-25T07:19:40.694Z,7.5
2023-04-25T07:24:46.795Z,6.4
2023-04-25T07:29:52.882Z,6.2
2023-04-25T07:34:58.979Z,4
2023-04-25T07:40:10.773Z,2.9
2023-04-25T07:45:22.490Z,1.9
2023-04-25T07:50:28.619Z,2.2
2023-04-25T07:55:34.618Z,3.9
2023-04-25T08:00:40.734Z,4.6
2023-04-25T08:05:46.973Z,4.1
2023-04-25T08:10:52.962Z,2.9
2023-04-25T08:16:00.103Z,1.4
2023-04-25T08:21:05.102Z,1.4
2023-04-25T08:26:11.221Z,1.2
2023-04-25T08:31:20.382Z,1.1
2023-04-25T08:36:35.468Z,1
2023-04-25T08:41:29.482Z,1.5
2023-04-25T08:46:35.587Z,1.9
2023-04-25T08:51:41.663Z,1.5
2023-04-25T08:56:47.749Z,1.3
2023-04-25T09:01:53.848Z,1.1
2023-04-25T09:06:59.923Z,1
2023-04-25T09:12:06.021Z,1.5
2023-04-25T09:17:12.203Z,1.4
2023-04-25T09:22:18.192Z,1.6
2023-04-25T09:27:29.930Z,1.8
2023-04-25T09:32:41.737Z,1.8
2023-04-25T09:37:53.441Z,1.7
2023-04-25T09:42:59.523Z,2.1
2023-04-25T09:48:05.620Z,4
2023-04-25T09:53:11.693Z,5.2
2023-04-25T09:58:17.778Z,5.4
2023-04-25T10:03:24.014Z,6
2023-04-25T10:08:30.007Z,4.9
2023-04-25T10:13:36.110Z,4
2023-04-25T10:18:42.170Z,3.9
2023-04-25T10:23:48.383Z,4.1
2023-04-25T10:28:54.377Z,3.8
2023-04-25T10:34:00.442Z,4
2023-04-25T10:39:06.550Z,4.5
2023-04-25T10:44:12.621Z,4.1
2023-04-25T10:49:18.723Z,3.9
2023-04-25T10:54:24.801Z,4.6
2023-04-25T10:59:30.932Z,5.1
2023-04-25T11:04:37.484Z,4.5
2023-04-25T11:09:43.134Z,3.8
2023-04-25T11:14:49.201Z,3.7
2023-04-25T11:19:55.289Z,4.6
2023-04-25T11:25:01.398Z,4
2023-04-25T11:30:13.123Z,3.9
2023-04-25T11:35:19.219Z,3.4
2023-04-25T11:40:30.952Z,3.8
2023-04-25T11:45:37.043Z,3.4
2023-04-25T11:50:43.136Z,4.1
2023-04-25T11:55:51.232Z,4.9
2023-04-25T12:00:55.337Z,4.8
2023-04-25T12:06:02.624Z,4.3
2023-04-25T12:11:07.496Z,4.1
2023-04-25T12:16:13.704Z,3.7
2023-04-25T12:21:19.699Z,3.2
2023-04-25T12:26:25.822Z,3.5
2023-04-25T12:31:31.951Z,4.2
2023-04-25T12:36:37.984Z,3.3
2023-04-25T12:41:44.074Z,3.7
2023-04-25T12:46:50.226Z,3.5
2023-04-25T12:51:56.250Z,4.1
2023-04-25T12:57:02.352Z,4.7
2023-04-25T13:02:08.518Z,4.7
2023-04-25T13:07:14.538Z,4.2
2023-04-25T13:12:20.608Z,3.9
2023-04-25T13:17:27.473Z,4.4
2023-04-25T13:22:38.526Z,5.3
2023-04-25T13:27:50.205Z,5.6
2023-04-25T13:32:56.309Z,4.7
2023-04-25T13:38:02.408Z,4.4
2023-04-25T13:43:08.462Z,4.6
2023-04-25T13:48:14.597Z,4.8
2023-04-25T13:53:20.662Z,4.5
2023-04-25T13:58:26.755Z,4.1
2023-04-25T14:03:33.922Z,4.8
2023-04-25T14:08:38.950Z,4.8
2023-04-25T14:13:45.063Z,4.4
2023-04-25T14:18:51.119Z,4.7
2023-04-25T14:23:57.202Z,4.7
2023-04-25T14:29:03.338Z,4.8
2023-04-25T14:34:09.412Z,4.4
2023-04-25T14:39:15.510Z,4.1
2023-04-25T14:44:21.599Z,4.1
2023-04-25T14:49:27.695Z,3.9
2023-04-25T14:54:33.776Z,4.6
2023-04-25T14:59:39.891Z,4.4
2023-04-25T15:04:46.068Z,4.1
2023-04-25T15:09:57.750Z,3.7
2023-04-25T15:15:09.414Z,3.7
2023-04-25T15:20:15.558Z,3.9
2023-04-25T15:25:21.634Z,3.7
2023-04-25T15:30:33.374Z,3.6
2023-04-25T15:35:39.478Z,3.9
2023-04-25T15:40:45.567Z,4.1
2023-04-25T15:45:51.712Z,4.3
2023-04-25T15:50:57.768Z,4.5
2023-04-25T15:56:03.845Z,4.7
2023-04-25T16:01:09.955Z,4.8
2023-04-25T16:06:16.019Z,4.8
2023-04-25T16:11:22.113Z,4.7
2023-04-25T16:16:28.237Z,4.8
2023-04-25T16:21:34.321Z,4.8
2023-04-25T16:26:40.371Z,4.5
2023-04-25T16:31:46.514Z,4.5
2023-04-25T16:36:53.920Z,4.5
2023-04-25T16:41:58.686Z,4.3
2023-04-25T16:47:04.868Z,4.1
2023-04-25T16:52:16.848Z,4
2023-04-25T16:57:28.279Z,3.4
2023-04-25T17:02:34.375Z,3
2023-04-25T17:07:40.419Z,2.9
2023-04-25T17:12:46.496Z,2.8
2023-04-25T17:17:52.620Z,2.8
2023-04-25T17:22:58.693Z,2.8
2023-04-25T17:28:04.778Z,2.8
2023-04-25T17:33:10.976Z,3
2023-04-25T17:38:16.996Z,2.8
2023-04-25T17:43:23.119Z,2.9
2023-04-25T17:48:29.187Z,2.5
2023-04-25T17:53:35.266Z,2.2
2023-04-25T17:58:41.360Z,1.8
2023-04-25T18:03:47.635Z,1.8
2023-04-25T18:08:53.836Z,1.3
2023-04-25T18:13:59.653Z,1.3
2023-04-25T18:19:05.776Z,1.2
2023-04-25T18:24:11.832Z,1
2023-04-25T18:29:29.293Z,0.8
2023-04-25T18:34:25.464Z,0.7
2023-04-25T18:39:35.756Z,0.6
2023-04-25T18:44:41.863Z,0.6
2023-04-25T18:49:48.004Z,0.6
2023-04-25T18:54:54.047Z,0.5
2023-04-25T19:00:00.161Z,0.4
2023-04-25T19:05:06.281Z,0.1
2023-04-25T19:10:12.329Z,-0.1
2023-04-25T19:15:18.423Z,-0.2
2023-04-25T19:20:24.501Z,-0.1
2023-04-25T19:25:30.627Z,-0.1
2023-04-25T19:30:36.698Z,0
2023-04-25T19:35:42.784Z,0
2023-04-25T19:40:48.879Z,-0.1
2023-04-25T19:45:54.977Z,-0.2
2023-04-25T19:51:01.054Z,-0.2
2023-04-25T19:56:07.196Z,-0.3
2023-04-25T20:01:13.289Z,-0.3
2023-04-25T20:06:19.344Z,-0.4
2023-04-25T20:11:25.427Z,-0.4
2023-04-25T20:16:31.552Z,-0.4
2023-04-25T20:21:43.265Z,-0.3
2023-04-25T20:26:54.992Z,-0.5
2023-04-25T20:32:06.879Z,-0.5
2023-04-25T20:37:13.597Z,-0.5
2023-04-25T20:42:18.920Z,-0.5
2023-04-25T20:47:25.015Z,-0.4
2023-04-25T20:52:31.102Z,-0.6
2023-04-25T20:57:37.193Z,-0.7
2023-04-25T21:02:43.371Z,-0.8
2023-04-25T21:07:49.374Z,-0.9
2023-04-25T21:12:55.497Z,-0.8
2023-04-25T21:18:01.597Z,-0.8
2023-04-25T21:23:07.697Z,-0.8
2023-04-25T21:28:13.762Z,-0.9
2023-04-25T21:33:19.870Z,-0.8
2023-04-25T21:38:25.963Z,-1
2023-04-25T21:43:32.040Z,-0.8
2023-04-25T21:48:38.142Z,-0.8
2023-04-25T21:53:44.215Z,-1
2023-04-25T21:58:50.717Z,-1.2
2023-04-25T22:03:56.581Z,-1.1
2023-04-25T22:09:02.530Z,-1
2023-04-25T22:14:14.256Z,-1.1
2023-04-25T22:19:20.364Z,-1
2023-04-25T22:24:26.456Z,-1
2023-04-25T22:29:32.544Z,-1.1
2023-04-25T22:34:38.632Z,-1.1
2023-04-25T22:39:44.725Z,-1.1
2023-04-25T22:44:50.836Z,-1.1
2023-04-25T22:49:57.145Z,-1.1
2023-04-25T22:55:03.038Z,-1.3
2023-04-25T23:00:09.125Z,-1.3
2023-04-25T23:05:15.360Z,-1.2
2023-04-25T23:10:28.571Z,-1.3
2023-04-25T23:15:27.405Z,-1.4
2023-04-25T23:20:33.445Z,-1.3
2023-04-25T23:25:39.564Z,-1.4
2023-04-25T23:30:45.699Z,-1.4
2023-04-25T23:35:52.006Z,-1.4
2023-04-25T23:40:57.836Z,-1.5
2023-04-25T23:46:05.019Z,-1.3
2023-04-25T23:51:10.050Z,-1.4
2023-04-25T23:56:21.756Z,-1.4
